AAL189 KBOS-KSEA
Flight info
| Callsign | AAL189 |
|---|---|
| Flight time | N/A |
| Altitude | 32000 |
| Route | HYLND7 HYLND SYR Q812 AHPAH/N0459F340 Q812 ZOHAN IYGUR KP06G KP12Y/N0463F360 GTF MLP GLASR3 |
| Aircraft | B738/M-SDE2E3FGHIRWXY/LB1 |
Departure
| Time | N/A |
|---|---|
| Airport | Boston Logan International Airport (KBOS) |
Arrival
| Time | 2026-05-04 18:39 |
|---|---|
| Airport | Seattle–Tacoma International Airport (KSEA) |
| Time | Latitude | Longitude | Altitude | Speed | Heading |
|---|---|---|---|---|---|
| 2026-05-04 15:20 | 45.66254 | -92.07707 | 33489 ft | 352 kts | 281° |
| 2026-05-04 15:20 | 45.67506 | -92.14487 | 33494 ft | 352 kts | 281° |
| 2026-05-04 15:21 | 45.68743 | -92.21213 | 33500 ft | 351 kts | 281° |
| 2026-05-04 15:22 | 45.70604 | -92.31380 | 33505 ft | 353 kts | 281° |
| 2026-05-04 15:22 | 45.72456 | -92.41549 | 33510 ft | 352 kts | 282° |
| 2026-05-04 15:23 | 45.73690 | -92.48357 | 33511 ft | 353 kts | 282° |
| 2026-05-04 15:23 | 45.74923 | -92.55186 | 33513 ft | 354 kts | 282° |
| 2026-05-04 15:24 | 45.77374 | -92.68835 | 33521 ft | 355 kts | 281° |
| 2026-05-04 15:25 | 45.78600 | -92.75704 | 33525 ft | 355 kts | 281° |
| 2026-05-04 15:26 | 45.80425 | -92.85968 | 33527 ft | 356 kts | 282° |
| 2026-05-04 15:26 | 45.82250 | -92.96290 | 33533 ft | 356 kts | 282° |
| 2026-05-04 15:27 | 45.84057 | -93.06578 | 33542 ft | 355 kts | 282° |
| 2026-05-04 15:28 | 45.85862 | -93.16905 | 33555 ft | 355 kts | 282° |
| 2026-05-04 15:29 | 45.87650 | -93.27197 | 33568 ft | 355 kts | 282° |
| 2026-05-04 15:30 | 45.91774 | -93.51176 | 33560 ft | 352 kts | 282° |
| 2026-05-04 15:31 | 45.93547 | -93.61411 | 33555 ft | 351 kts | 282° |
| 2026-05-04 15:32 | 45.96418 | -93.78409 | 33550 ft | 350 kts | 281° |
| 2026-05-04 15:34 | 45.99242 | -93.95416 | 33553 ft | 349 kts | 281° |
| 2026-05-04 15:34 | 46.00906 | -94.05592 | 33555 ft | 349 kts | 281° |
| 2026-05-04 15:35 | 46.02542 | -94.15801 | 33557 ft | 349 kts | 281° |
| 2026-05-04 15:36 | 46.04167 | -94.26041 | 33553 ft | 350 kts | 281° |
| 2026-05-04 15:36 | 46.05238 | -94.32842 | 33545 ft | 351 kts | 281° |
| 2026-05-04 15:37 | 46.06317 | -94.39723 | 33536 ft | 351 kts | 281° |
| 2026-05-04 15:37 | 46.07391 | -94.46611 | 33541 ft | 352 kts | 281° |
| 2026-05-04 15:38 | 46.08491 | -94.53471 | 33549 ft | 354 kts | 281° |
| 2026-05-04 15:38 | 46.09602 | -94.60402 | 33556 ft | 354 kts | 281° |
| 2026-05-04 15:39 | 46.10700 | -94.67322 | 33564 ft | 355 kts | 281° |
| 2026-05-04 15:40 | 46.12334 | -94.77732 | 33578 ft | 356 kts | 281° |
| 2026-05-04 15:40 | 46.13419 | -94.84708 | 33586 ft | 357 kts | 281° |
| 2026-05-04 15:41 | 46.14501 | -94.91700 | 33596 ft | 357 kts | 281° |
| 2026-05-04 15:41 | 46.15570 | -94.98651 | 33603 ft | 357 kts | 281° |
| 2026-05-04 15:42 | 46.16641 | -95.05652 | 33605 ft | 357 kts | 281° |
| 2026-05-04 15:42 | 46.17706 | -95.12644 | 33606 ft | 357 kts | 281° |
| 2026-05-04 15:43 | 46.18766 | -95.19633 | 33608 ft | 357 kts | 281° |
| 2026-05-04 15:43 | 46.19822 | -95.26629 | 33611 ft | 356 kts | 281° |
| 2026-05-04 15:44 | 46.20871 | -95.33612 | 33612 ft | 355 kts | 281° |
| 2026-05-04 15:44 | 46.21737 | -95.39417 | 33616 ft | 355 kts | 281° |
| 2026-05-04 15:45 | 46.22942 | -95.47512 | 33627 ft | 354 kts | 281° |
| 2026-05-04 15:45 | 46.23801 | -95.53296 | 33631 ft | 353 kts | 281° |
| 2026-05-04 15:46 | 46.24827 | -95.60248 | 33635 ft | 353 kts | 280° |
| 2026-05-04 15:46 | 46.25848 | -95.67189 | 33639 ft | 352 kts | 280° |
| 2026-05-04 15:47 | 46.26856 | -95.74077 | 33643 ft | 352 kts | 280° |
| 2026-05-04 15:47 | 46.27866 | -95.81016 | 33638 ft | 352 kts | 280° |
| 2026-05-04 15:48 | 46.28866 | -95.87912 | 33645 ft | 350 kts | 280° |
| 2026-05-04 15:48 | 46.30356 | -95.98238 | 33656 ft | 351 kts | 280° |
| 2026-05-04 15:49 | 46.31347 | -96.05153 | 33659 ft | 350 kts | 280° |
| 2026-05-04 15:49 | 46.32333 | -96.12061 | 33660 ft | 351 kts | 280° |
| 2026-05-04 15:50 | 46.33316 | -96.18977 | 33660 ft | 351 kts | 280° |
| 2026-05-04 15:50 | 46.34292 | -96.25886 | 33661 ft | 352 kts | 280° |
| 2026-05-04 15:51 | 46.35272 | -96.32846 | 33661 ft | 352 kts | 280° |
| 2026-05-04 15:51 | 46.36240 | -96.39753 | 33664 ft | 353 kts | 280° |
| 2026-05-04 15:52 | 46.37216 | -96.46753 | 33666 ft | 354 kts | 280° |
| 2026-05-04 15:52 | 46.38188 | -96.53762 | 33668 ft | 355 kts | 280° |
| 2026-05-04 15:53 | 46.39157 | -96.60776 | 33668 ft | 356 kts | 280° |
| 2026-05-04 15:53 | 46.40120 | -96.67778 | 33671 ft | 356 kts | 280° |
| 2026-05-04 15:54 | 46.41087 | -96.74851 | 33674 ft | 357 kts | 280° |
| 2026-05-04 15:54 | 46.42049 | -96.81921 | 33675 ft | 357 kts | 280° |
| 2026-05-04 15:55 | 46.43010 | -96.89009 | 33684 ft | 359 kts | 280° |
| 2026-05-04 15:55 | 46.43961 | -96.96065 | 33691 ft | 358 kts | 280° |
| 2026-05-04 15:56 | 46.44914 | -97.03168 | 33697 ft | 358 kts | 280° |
| 2026-05-04 15:56 | 46.45865 | -97.10293 | 33699 ft | 360 kts | 280° |
| 2026-05-04 15:57 | 46.46810 | -97.17414 | 33703 ft | 359 kts | 280° |
| 2026-05-04 15:57 | 46.47747 | -97.24504 | 33707 ft | 359 kts | 280° |
| 2026-05-04 15:58 | 46.48682 | -97.31629 | 33711 ft | 358 kts | 280° |
| 2026-05-04 15:58 | 46.49612 | -97.38733 | 33714 ft | 358 kts | 280° |
| 2026-05-04 15:59 | 46.50531 | -97.45789 | 33717 ft | 358 kts | 280° |
| 2026-05-04 15:59 | 46.51452 | -97.52897 | 33719 ft | 358 kts | 279° |
| 2026-05-04 16:00 | 46.52370 | -97.60023 | 33720 ft | 357 kts | 279° |
| 2026-05-04 16:00 | 46.53280 | -97.67122 | 33725 ft | 357 kts | 279° |
| 2026-05-04 16:01 | 46.54184 | -97.74211 | 33732 ft | 357 kts | 279° |
| 2026-05-04 16:01 | 46.55080 | -97.81280 | 33734 ft | 357 kts | 279° |
| 2026-05-04 16:02 | 46.55978 | -97.88392 | 33735 ft | 357 kts | 279° |
| 2026-05-04 16:03 | 46.57306 | -97.98995 | 33736 ft | 357 kts | 279° |
| 2026-05-04 16:03 | 46.58192 | -98.06109 | 33740 ft | 357 kts | 279° |
| 2026-05-04 16:04 | 46.59072 | -98.13213 | 33745 ft | 357 kts | 279° |
| 2026-05-04 16:04 | 46.60380 | -98.23838 | 33746 ft | 357 kts | 279° |
| 2026-05-04 16:05 | 46.61252 | -98.30983 | 33747 ft | 358 kts | 279° |
| 2026-05-04 16:06 | 46.62548 | -98.41654 | 33748 ft | 359 kts | 279° |
| 2026-05-04 16:07 | 46.64273 | -98.55991 | 33751 ft | 359 kts | 279° |
| 2026-05-04 16:08 | 46.65978 | -98.70338 | 33754 ft | 360 kts | 279° |
| 2026-05-04 16:09 | 46.68092 | -98.88332 | 33757 ft | 361 kts | 279° |
| 2026-05-04 16:10 | 46.69770 | -99.02806 | 33759 ft | 363 kts | 279° |
| 2026-05-04 16:11 | 46.71429 | -99.17282 | 33764 ft | 362 kts | 279° |
| 2026-05-04 16:12 | 46.73887 | -99.39048 | 33776 ft | 363 kts | 279° |
| 2026-05-04 16:13 | 46.75507 | -99.53603 | 33793 ft | 363 kts | 279° |
| 2026-05-04 16:14 | 46.77108 | -99.68165 | 33796 ft | 363 kts | 279° |
| 2026-05-04 16:16 | 46.79083 | -99.86383 | 33801 ft | 363 kts | 279° |
| 2026-05-04 16:17 | 46.81027 | -100.04593 | 33816 ft | 364 kts | 279° |
| 2026-05-04 16:18 | 46.82563 | -100.19195 | 33835 ft | 364 kts | 279° |
| 2026-05-04 16:19 | 46.84460 | -100.37470 | 33847 ft | 364 kts | 279° |
| 2026-05-04 16:20 | 46.86334 | -100.55809 | 33850 ft | 365 kts | 279° |
| 2026-05-04 16:22 | 46.88174 | -100.74127 | 33850 ft | 365 kts | 279° |
| 2026-05-04 16:23 | 46.90227 | -100.94935 | 33842 ft | 365 kts | 279° |
| 2026-05-04 16:25 | 46.92478 | -101.18218 | 33845 ft | 366 kts | 278° |
| 2026-05-04 16:26 | 46.94916 | -101.44038 | 33854 ft | 366 kts | 278° |
| 2026-05-04 16:28 | 46.96657 | -101.62468 | 33859 ft | 366 kts | 278° |
| 2026-05-04 16:29 | 46.98866 | -101.87092 | 33861 ft | 366 kts | 278° |
| 2026-05-04 16:31 | 47.00494 | -102.05565 | 33859 ft | 366 kts | 278° |
| 2026-05-04 16:32 | 47.02411 | -102.27791 | 33860 ft | 366 kts | 278° |
| 2026-05-04 16:33 | 47.03651 | -102.42581 | 33858 ft | 366 kts | 278° |
| 2026-05-04 16:34 | 47.04595 | -102.53703 | 33857 ft | 366 kts | 278° |
| 2026-05-04 16:35 | 47.06507 | -102.75906 | 33857 ft | 366 kts | 278° |
| 2026-05-04 16:36 | 47.07432 | -102.87040 | 33862 ft | 366 kts | 278° |
| 2026-05-04 16:37 | 47.08337 | -102.98140 | 33865 ft | 366 kts | 278° |
| 2026-05-04 16:38 | 47.09529 | -103.12991 | 33871 ft | 366 kts | 278° |
| 2026-05-04 16:39 | 47.10986 | -103.31518 | 33887 ft | 366 kts | 277° |
| 2026-05-04 16:40 | 47.12133 | -103.46400 | 33900 ft | 366 kts | 277° |
| 2026-05-04 16:41 | 47.12697 | -103.53813 | 34083 ft | 368 kts | 277° |
| 2026-05-04 16:41 | 47.13540 | -103.65051 | 34820 ft | 370 kts | 278° |
| 2026-05-04 16:42 | 47.14379 | -103.76354 | 35478 ft | 373 kts | 278° |
| 2026-05-04 16:43 | 47.14939 | -103.83975 | 35887 ft | 376 kts | 278° |
| 2026-05-04 16:43 | 47.15771 | -103.95447 | 35915 ft | 377 kts | 278° |
| 2026-05-04 16:45 | 47.17405 | -104.18462 | 35924 ft | 377 kts | 278° |
| 2026-05-04 16:46 | 47.18730 | -104.37631 | 35931 ft | 377 kts | 278° |
| 2026-05-04 16:47 | 47.19766 | -104.52963 | 35935 ft | 378 kts | 278° |
| 2026-05-04 16:48 | 47.20786 | -104.68360 | 35938 ft | 378 kts | 277° |
| 2026-05-04 16:49 | 47.21785 | -104.83782 | 35940 ft | 378 kts | 277° |
| 2026-05-04 16:50 | 47.22763 | -104.99187 | 35941 ft | 380 kts | 278° |
| 2026-05-04 16:51 | 47.23486 | -105.10791 | 35942 ft | 379 kts | 277° |
| 2026-05-04 16:52 | 47.24432 | -105.26297 | 35945 ft | 380 kts | 278° |
| 2026-05-04 16:53 | 47.25130 | -105.37934 | 35948 ft | 380 kts | 278° |
| 2026-05-04 16:54 | 47.26038 | -105.53407 | 35952 ft | 380 kts | 278° |
| 2026-05-04 16:55 | 47.27367 | -105.76727 | 35971 ft | 381 kts | 278° |
| 2026-05-04 16:56 | 47.28439 | -105.96170 | 35986 ft | 381 kts | 278° |
| 2026-05-04 16:57 | 47.29067 | -106.07880 | 35992 ft | 384 kts | 278° |
| 2026-05-04 16:58 | 47.29890 | -106.23557 | 35993 ft | 384 kts | 278° |
| 2026-05-04 17:00 | 47.31087 | -106.47113 | 35997 ft | 384 kts | 277° |
| 2026-05-04 17:01 | 47.32048 | -106.66769 | 35999 ft | 385 kts | 277° |
| 2026-05-04 17:02 | 47.32796 | -106.82558 | 36000 ft | 386 kts | 277° |
| 2026-05-04 17:03 | 47.33344 | -106.94442 | 36000 ft | 387 kts | 277° |
| 2026-05-04 17:03 | 47.33878 | -107.06289 | 36000 ft | 387 kts | 277° |
| 2026-05-04 17:04 | 47.34573 | -107.22166 | 35998 ft | 388 kts | 277° |
| 2026-05-04 17:05 | 47.35248 | -107.38056 | 35999 ft | 389 kts | 277° |
| 2026-05-04 17:06 | 47.35742 | -107.50012 | 35999 ft | 389 kts | 277° |
| 2026-05-04 17:07 | 47.36170 | -107.60649 | 35998 ft | 389 kts | 277° |
| 2026-05-04 17:07 | 47.36536 | -107.69936 | 35998 ft | 390 kts | 277° |
| 2026-05-04 17:08 | 47.36997 | -107.81935 | 35999 ft | 390 kts | 277° |
| 2026-05-04 17:09 | 47.37296 | -107.89882 | 35999 ft | 389 kts | 277° |
| 2026-05-04 17:09 | 47.37591 | -107.97879 | 36002 ft | 389 kts | 277° |
| 2026-05-04 17:10 | 47.38305 | -108.17901 | 36006 ft | 392 kts | 277° |
| 2026-05-04 17:11 | 47.38582 | -108.25956 | 36006 ft | 393 kts | 277° |
| 2026-05-04 17:12 | 47.38943 | -108.36710 | 36010 ft | 393 kts | 277° |
| 2026-05-04 17:13 | 47.39593 | -108.56866 | 36014 ft | 394 kts | 277° |
| 2026-05-04 17:14 | 47.40091 | -108.73102 | 36035 ft | 396 kts | 277° |
| 2026-05-04 17:15 | 47.40449 | -108.85244 | 36049 ft | 397 kts | 276° |
| 2026-05-04 17:16 | 47.40911 | -109.01623 | 36057 ft | 399 kts | 276° |
| 2026-05-04 17:17 | 47.41348 | -109.17995 | 36061 ft | 401 kts | 276° |
| 2026-05-04 17:18 | 47.41766 | -109.34457 | 36064 ft | 402 kts | 276° |
| 2026-05-04 17:19 | 47.42160 | -109.50952 | 36069 ft | 403 kts | 276° |
| 2026-05-04 17:20 | 47.42531 | -109.67489 | 36072 ft | 403 kts | 276° |
| 2026-05-04 17:20 | 47.42795 | -109.79941 | 36078 ft | 404 kts | 276° |
| 2026-05-04 17:21 | 47.43124 | -109.96509 | 36090 ft | 404 kts | 276° |
| 2026-05-04 17:22 | 47.43281 | -110.04822 | 36089 ft | 406 kts | 277° |
| 2026-05-04 17:23 | 47.43579 | -110.21549 | 36088 ft | 408 kts | 276° |
| 2026-05-04 17:24 | 47.43787 | -110.34149 | 36082 ft | 408 kts | 276° |
| 2026-05-04 17:25 | 47.44042 | -110.50920 | 36077 ft | 409 kts | 276° |
| 2026-05-04 17:26 | 47.44273 | -110.67787 | 36075 ft | 412 kts | 276° |
| 2026-05-04 17:27 | 47.44530 | -110.88933 | 36072 ft | 413 kts | 276° |
| 2026-05-04 17:28 | 47.44746 | -111.05917 | 36071 ft | 415 kts | 276° |
| 2026-05-04 17:29 | 47.44939 | -111.31571 | 36081 ft | 418 kts | 276° |
| 2026-05-04 17:31 | 47.45180 | -111.53052 | 36090 ft | 418 kts | 278° |
| 2026-05-04 17:32 | 47.45554 | -111.74531 | 36089 ft | 419 kts | 278° |
| 2026-05-04 17:33 | 47.45801 | -111.91672 | 36086 ft | 419 kts | 278° |
| 2026-05-04 17:34 | 47.46113 | -112.08960 | 36085 ft | 423 kts | 278° |
| 2026-05-04 17:35 | 47.46426 | -112.30629 | 36083 ft | 422 kts | 278° |
| 2026-05-04 17:36 | 47.46533 | -112.39315 | 36080 ft | 423 kts | 278° |
| 2026-05-04 17:36 | 47.46632 | -112.48019 | 36073 ft | 423 kts | 277° |
| 2026-05-04 17:37 | 47.46724 | -112.56748 | 36063 ft | 424 kts | 277° |
| 2026-05-04 17:37 | 47.46808 | -112.65422 | 36052 ft | 424 kts | 277° |
| 2026-05-04 17:38 | 47.46886 | -112.74159 | 36047 ft | 425 kts | 277° |
| 2026-05-04 17:38 | 47.46958 | -112.82933 | 36045 ft | 427 kts | 277° |
| 2026-05-04 17:39 | 47.47051 | -112.96062 | 36041 ft | 427 kts | 277° |
| 2026-05-04 17:39 | 47.47106 | -113.04894 | 36039 ft | 428 kts | 277° |
| 2026-05-04 17:40 | 47.47154 | -113.13651 | 36037 ft | 429 kts | 277° |
| 2026-05-04 17:40 | 47.47195 | -113.22473 | 36034 ft | 429 kts | 277° |
| 2026-05-04 17:41 | 47.47229 | -113.31314 | 36031 ft | 430 kts | 277° |
| 2026-05-04 17:41 | 47.47257 | -113.40165 | 36028 ft | 430 kts | 277° |
| 2026-05-04 17:42 | 47.47278 | -113.49026 | 36026 ft | 431 kts | 277° |
| 2026-05-04 17:42 | 47.47292 | -113.57834 | 36024 ft | 431 kts | 277° |
| 2026-05-04 17:43 | 47.47298 | -113.66708 | 36020 ft | 431 kts | 277° |
| 2026-05-04 17:43 | 47.47299 | -113.75583 | 36019 ft | 431 kts | 277° |
| 2026-05-04 17:44 | 47.47293 | -113.84470 | 36017 ft | 432 kts | 277° |
| 2026-05-04 17:44 | 47.47280 | -113.93316 | 36016 ft | 432 kts | 278° |
| 2026-05-04 17:45 | 47.47260 | -114.02209 | 36015 ft | 432 kts | 278° |
| 2026-05-04 17:45 | 47.47232 | -114.11141 | 36015 ft | 434 kts | 278° |
| 2026-05-04 17:46 | 47.47199 | -114.20041 | 35999 ft | 434 kts | 277° |
| 2026-05-04 17:46 | 47.47158 | -114.28982 | 35991 ft | 434 kts | 277° |
| 2026-05-04 17:47 | 47.47109 | -114.37914 | 35984 ft | 436 kts | 277° |
| 2026-05-04 17:47 | 47.47055 | -114.46897 | 35980 ft | 436 kts | 277° |
| 2026-05-04 17:48 | 47.46993 | -114.55811 | 35977 ft | 436 kts | 277° |
| 2026-05-04 17:48 | 47.46924 | -114.64796 | 35974 ft | 437 kts | 277° |
| 2026-05-04 17:49 | 47.46848 | -114.73801 | 35972 ft | 438 kts | 277° |
| 2026-05-04 17:49 | 47.46765 | -114.82771 | 35970 ft | 439 kts | 277° |
| 2026-05-04 17:50 | 47.46675 | -114.91797 | 35970 ft | 440 kts | 277° |
| 2026-05-04 17:50 | 47.46576 | -115.00867 | 35970 ft | 440 kts | 276° |
| 2026-05-04 17:51 | 47.46471 | -115.09930 | 35973 ft | 441 kts | 276° |
| 2026-05-04 17:51 | 47.46371 | -115.19007 | 35978 ft | 441 kts | 277° |
| 2026-05-04 17:52 | 47.46277 | -115.28036 | 35985 ft | 442 kts | 276° |
| 2026-05-04 17:52 | 47.46148 | -115.37161 | 35993 ft | 442 kts | 276° |
| 2026-05-04 17:53 | 47.46003 | -115.46209 | 36001 ft | 442 kts | 276° |
| 2026-05-04 17:53 | 47.45849 | -115.55294 | 36006 ft | 443 kts | 276° |
| 2026-05-04 17:54 | 47.45720 | -115.64418 | 36009 ft | 441 kts | 278° |
| 2026-05-04 17:54 | 47.46121 | -115.73383 | 36010 ft | 434 kts | 283° |
| 2026-05-04 17:55 | 47.46704 | -115.82213 | 36007 ft | 435 kts | 283° |
| 2026-05-04 17:55 | 47.47174 | -115.89644 | 36004 ft | 436 kts | 283° |
| 2026-05-04 17:56 | 47.47716 | -115.98572 | 35999 ft | 436 kts | 283° |
| 2026-05-04 17:56 | 47.48243 | -116.07523 | 35992 ft | 437 kts | 283° |
| 2026-05-04 17:57 | 47.48769 | -116.16522 | 35983 ft | 438 kts | 283° |
| 2026-05-04 17:57 | 47.49326 | -116.25437 | 35972 ft | 438 kts | 283° |
| 2026-05-04 17:58 | 47.49864 | -116.34455 | 35960 ft | 439 kts | 283° |
| 2026-05-04 17:58 | 47.50384 | -116.43397 | 35948 ft | 439 kts | 283° |
| 2026-05-04 17:59 | 47.50894 | -116.52434 | 35938 ft | 441 kts | 282° |
| 2026-05-04 18:00 | 47.51643 | -116.65985 | 35925 ft | 441 kts | 282° |
| 2026-05-04 18:00 | 47.52134 | -116.75063 | 35920 ft | 442 kts | 282° |
| 2026-05-04 18:01 | 47.52616 | -116.84104 | 35917 ft | 442 kts | 282° |
| 2026-05-04 18:01 | 47.53091 | -116.93197 | 35912 ft | 443 kts | 282° |
| 2026-05-04 18:02 | 47.53793 | -117.06839 | 35905 ft | 444 kts | 282° |
| 2026-05-04 18:02 | 47.54257 | -117.15963 | 35902 ft | 444 kts | 282° |
| 2026-05-04 18:03 | 47.54741 | -117.25086 | 35901 ft | 444 kts | 282° |
| 2026-05-04 18:03 | 47.55183 | -117.34161 | 35900 ft | 444 kts | 282° |
| 2026-05-04 18:04 | 47.55611 | -117.43321 | 35900 ft | 444 kts | 282° |
| 2026-05-04 18:05 | 47.56235 | -117.56976 | 35898 ft | 444 kts | 282° |
| 2026-05-04 18:05 | 47.56729 | -117.66090 | 35893 ft | 441 kts | 285° |
| 2026-05-04 18:06 | 47.58039 | -117.79553 | 35890 ft | 439 kts | 286° |
| 2026-05-04 18:06 | 47.58908 | -117.88535 | 35890 ft | 440 kts | 286° |
| 2026-05-04 18:07 | 47.59747 | -117.97445 | 35890 ft | 440 kts | 286° |
| 2026-05-04 18:07 | 47.60580 | -118.06439 | 35889 ft | 440 kts | 286° |
| 2026-05-04 18:08 | 47.61415 | -118.15432 | 35888 ft | 440 kts | 286° |
| 2026-05-04 18:08 | 47.62279 | -118.24439 | 35889 ft | 441 kts | 286° |
| 2026-05-04 18:09 | 47.63941 | -118.42450 | 35883 ft | 441 kts | 285° |
| 2026-05-04 18:10 | 47.64758 | -118.51500 | 35881 ft | 443 kts | 285° |
| 2026-05-04 18:10 | 47.65564 | -118.60545 | 35878 ft | 443 kts | 285° |
| 2026-05-04 18:11 | 47.66362 | -118.69609 | 35876 ft | 444 kts | 285° |
| 2026-05-04 18:11 | 47.67152 | -118.78693 | 35874 ft | 445 kts | 285° |
| 2026-05-04 18:12 | 47.67944 | -118.87844 | 35872 ft | 446 kts | 285° |
| 2026-05-04 18:12 | 47.68725 | -118.96971 | 35870 ft | 447 kts | 285° |
| 2026-05-04 18:13 | 47.69519 | -119.06041 | 35869 ft | 446 kts | 285° |
| 2026-05-04 18:14 | 47.70679 | -119.19770 | 35863 ft | 448 kts | 284° |
| 2026-05-04 18:14 | 47.71426 | -119.28965 | 35861 ft | 448 kts | 284° |
| 2026-05-04 18:15 | 47.72902 | -119.47337 | 35857 ft | 448 kts | 284° |
| 2026-05-04 18:16 | 47.73630 | -119.56500 | 35862 ft | 447 kts | 284° |
| 2026-05-04 18:16 | 47.74348 | -119.65681 | 35869 ft | 447 kts | 284° |
| 2026-05-04 18:17 | 47.75471 | -119.79433 | 35872 ft | 447 kts | 284° |
| 2026-05-04 18:17 | 47.76177 | -119.88613 | 35507 ft | 445 kts | 284° |
| 2026-05-04 18:18 | 47.76521 | -119.93167 | 34909 ft | 444 kts | 284° |
| 2026-05-04 18:18 | 47.76861 | -119.97721 | 34234 ft | 445 kts | 283° |
| 2026-05-04 18:18 | 47.77203 | -120.02301 | 33549 ft | 446 kts | 283° |
| 2026-05-04 18:18 | 47.77544 | -120.06891 | 32855 ft | 447 kts | 283° |
| 2026-05-04 18:19 | 47.78225 | -120.16044 | 31439 ft | 449 kts | 282° |
| 2026-05-04 18:19 | 47.78565 | -120.20669 | 30705 ft | 450 kts | 281° |
| 2026-05-04 18:19 | 47.78903 | -120.25304 | 29958 ft | 450 kts | 281° |
| 2026-05-04 18:20 | 47.79238 | -120.29961 | 29200 ft | 451 kts | 281° |
| 2026-05-04 18:20 | 47.79587 | -120.34608 | 28433 ft | 452 kts | 281° |
| 2026-05-04 18:20 | 47.79943 | -120.39201 | 27657 ft | 453 kts | 281° |
| 2026-05-04 18:20 | 47.80288 | -120.43871 | 26845 ft | 454 kts | 280° |
| 2026-05-04 18:21 | 47.80628 | -120.48559 | 26003 ft | 455 kts | 280° |
| 2026-05-04 18:21 | 47.80960 | -120.53257 | 25133 ft | 457 kts | 279° |
| 2026-05-04 18:21 | 47.81287 | -120.57959 | 24320 ft | 457 kts | 279° |
| 2026-05-04 18:21 | 47.81612 | -120.62657 | 23651 ft | 453 kts | 279° |
| 2026-05-04 18:22 | 47.81926 | -120.67242 | 22991 ft | 449 kts | 279° |
| 2026-05-04 18:22 | 47.82242 | -120.71851 | 22322 ft | 445 kts | 279° |
| 2026-05-04 18:22 | 47.82555 | -120.76418 | 21656 ft | 441 kts | 279° |
| 2026-05-04 18:22 | 47.82867 | -120.80946 | 20991 ft | 438 kts | 279° |
| 2026-05-04 18:23 | 47.83189 | -120.85439 | 20331 ft | 434 kts | 279° |
| 2026-05-04 18:23 | 47.83496 | -120.89893 | 19673 ft | 431 kts | 279° |
| 2026-05-04 18:23 | 47.83796 | -120.94313 | 19018 ft | 427 kts | 278° |
| 2026-05-04 18:23 | 47.84088 | -120.98697 | 18366 ft | 424 kts | 278° |
| 2026-05-04 18:24 | 47.84370 | -121.03052 | 17716 ft | 421 kts | 278° |
| 2026-05-04 18:24 | 47.84650 | -121.07319 | 17081 ft | 417 kts | 278° |
| 2026-05-04 18:24 | 47.84934 | -121.11653 | 16459 ft | 413 kts | 278° |
| 2026-05-04 18:24 | 47.85206 | -121.15835 | 15838 ft | 409 kts | 277° |
| 2026-05-04 18:25 | 47.85477 | -121.20044 | 15209 ft | 406 kts | 277° |
| 2026-05-04 18:25 | 47.85753 | -121.24221 | 14576 ft | 402 kts | 278° |
| 2026-05-04 18:25 | 47.86034 | -121.28327 | 14176 ft | 390 kts | 277° |
| 2026-05-04 18:25 | 47.86297 | -121.32240 | 14016 ft | 368 kts | 277° |
| 2026-05-04 18:26 | 47.86535 | -121.35937 | 13823 ft | 350 kts | 277° |
| 2026-05-04 18:26 | 47.86759 | -121.39456 | 13641 ft | 333 kts | 277° |
| 2026-05-04 18:26 | 47.86966 | -121.42781 | 13465 ft | 318 kts | 277° |
| 2026-05-04 18:26 | 47.87168 | -121.46023 | 13296 ft | 310 kts | 277° |
| 2026-05-04 18:27 | 47.87363 | -121.49198 | 13127 ft | 304 kts | 277° |
| 2026-05-04 18:27 | 47.87553 | -121.52302 | 12960 ft | 298 kts | 277° |
| 2026-05-04 18:27 | 47.87738 | -121.55341 | 12795 ft | 292 kts | 277° |
| 2026-05-04 18:27 | 47.87916 | -121.58301 | 12632 ft | 289 kts | 277° |
| 2026-05-04 18:28 | 47.88098 | -121.61316 | 12476 ft | 294 kts | 277° |
| 2026-05-04 18:28 | 47.88283 | -121.64384 | 12309 ft | 299 kts | 277° |
| 2026-05-04 18:28 | 47.88357 | -121.67493 | 12133 ft | 301 kts | 265° |
| 2026-05-04 18:28 | 47.87728 | -121.70423 | 11961 ft | 302 kts | 243° |
| 2026-05-04 18:29 | 47.86496 | -121.72957 | 11516 ft | 302 kts | 230° |
| 2026-05-04 18:29 | 47.85060 | -121.75229 | 11118 ft | 299 kts | 226° |
| 2026-05-04 18:29 | 47.83548 | -121.77348 | 10732 ft | 296 kts | 224° |
| 2026-05-04 18:29 | 47.82026 | -121.79387 | 10357 ft | 292 kts | 223° |
| 2026-05-04 18:30 | 47.79067 | -121.83367 | 9631 ft | 284 kts | 224° |
| 2026-05-04 18:30 | 47.77606 | -121.85337 | 9272 ft | 280 kts | 223° |
| 2026-05-04 18:30 | 47.76147 | -121.87238 | 8919 ft | 276 kts | 223° |
| 2026-05-04 18:31 | 47.74749 | -121.89135 | 8574 ft | 272 kts | 224° |
| 2026-05-04 18:31 | 47.73366 | -121.91029 | 8232 ft | 268 kts | 224° |
| 2026-05-04 18:31 | 47.71999 | -121.92893 | 7894 ft | 264 kts | 224° |
| 2026-05-04 18:31 | 47.70648 | -121.94724 | 7561 ft | 260 kts | 224° |
| 2026-05-04 18:32 | 47.69315 | -121.96523 | 7232 ft | 256 kts | 224° |
| 2026-05-04 18:32 | 47.68023 | -121.98263 | 6921 ft | 251 kts | 224° |
| 2026-05-04 18:32 | 47.66749 | -121.99976 | 6622 ft | 244 kts | 224° |
| 2026-05-04 18:32 | 47.65498 | -122.01657 | 6303 ft | 239 kts | 224° |
| 2026-05-04 18:33 | 47.64276 | -122.03298 | 5999 ft | 233 kts | 224° |
| 2026-05-04 18:33 | 47.63093 | -122.04883 | 5709 ft | 225 kts | 224° |
| 2026-05-04 18:33 | 47.61946 | -122.06417 | 5420 ft | 218 kts | 223° |
| 2026-05-04 18:33 | 47.60848 | -122.07887 | 5147 ft | 212 kts | 223° |
| 2026-05-04 18:34 | 47.59775 | -122.09321 | 4886 ft | 203 kts | 223° |
| 2026-05-04 18:34 | 47.58749 | -122.10693 | 4621 ft | 194 kts | 223° |
| 2026-05-04 18:34 | 47.57770 | -122.12001 | 4377 ft | 186 kts | 223° |
| 2026-05-04 18:34 | 47.56823 | -122.13266 | 4151 ft | 181 kts | 223° |
| 2026-05-04 18:35 | 47.56072 | -122.14685 | 3923 ft | 174 kts | 243° |
| 2026-05-04 18:35 | 47.55673 | -122.16358 | 3699 ft | 170 kts | 255° |
| 2026-05-04 18:35 | 47.55418 | -122.18060 | 3483 ft | 167 kts | 258° |
| 2026-05-04 18:35 | 47.55210 | -122.19740 | 3267 ft | 163 kts | 259° |
| 2026-05-04 18:36 | 47.55012 | -122.21345 | 3087 ft | 157 kts | 258° |
| 2026-05-04 18:36 | 47.54813 | -122.22917 | 2889 ft | 154 kts | 258° |
| 2026-05-04 18:36 | 47.54614 | -122.24483 | 2695 ft | 155 kts | 258° |
| 2026-05-04 18:36 | 47.54414 | -122.26053 | 2502 ft | 155 kts | 258° |
| 2026-05-04 18:37 | 47.54216 | -122.27595 | 2268 ft | 155 kts | 258° |
| 2026-05-04 18:37 | 47.54000 | -122.29175 | 1957 ft | 156 kts | 252° |
| 2026-05-04 18:37 | 47.53368 | -122.30404 | 1779 ft | 151 kts | 215° |
| 2026-05-04 18:37 | 47.52376 | -122.30906 | 1571 ft | 153 kts | 191° |
| 2026-05-04 18:38 | 47.51310 | -122.31061 | 1351 ft | 154 kts | 184° |
| 2026-05-04 18:38 | 47.50236 | -122.31073 | 1143 ft | 154 kts | 181° |
| 2026-05-04 18:38 | 47.49165 | -122.31077 | 937 ft | 153 kts | 182° |
| 2026-05-04 18:38 | 47.48111 | -122.31086 | 735 ft | 151 kts | 182° |
| 2026-05-04 18:39 | 47.47072 | -122.31095 | 533 ft | 148 kts | 181° |
| 2026-05-04 18:39 | 47.46062 | -122.31105 | 372 ft | 144 kts | 181° |
| 2026-05-04 18:39 | 47.45206 | -122.31111 | 370 ft | 94 kts | 182° |
| 2026-05-04 18:39 | 47.44754 | -122.31118 | 370 ft | 35 kts | 181° |
| 2026-05-04 18:40 | 47.44610 | -122.31076 | 370 ft | 18 kts | 151° |
| 2026-05-04 18:40 | 47.44517 | -122.31001 | 370 ft | 13 kts | 151° |
| 2026-05-04 18:40 | 47.44434 | -122.30933 | 370 ft | 13 kts | 151° |
| 2026-05-04 18:40 | 47.44376 | -122.30847 | 370 ft | 11 kts | 117° |
| 2026-05-04 18:41 | 47.44359 | -122.30749 | 370 ft | 9 kts | 95° |
| 2026-05-04 18:41 | 47.44356 | -122.30665 | 370 ft | 7 kts | 91° |
| 2026-05-04 18:41 | 47.44380 | -122.30614 | 370 ft | 10 kts | 4° |
| 2026-05-04 18:41 | 47.44454 | -122.30614 | 370 ft | 10 kts | 359° |
| 2026-05-04 18:42 | 47.44533 | -122.30615 | 370 ft | 13 kts | 359° |
| 2026-05-04 18:42 | 47.44626 | -122.30616 | 370 ft | 13 kts | 360° |
| 2026-05-04 18:42 | 47.44681 | -122.30597 | 370 ft | 5 kts | 70° |
| 2026-05-04 18:42 | 47.44683 | -122.30561 | 370 ft | 4 kts | 90° |
| 2026-05-04 18:43 | 47.44681 | -122.30514 | 370 ft | 3 kts | 108° |
| 2026-05-04 18:43 | 47.44667 | -122.30487 | 370 ft | 5 kts | 134° |
| 2026-05-04 18:43 | 47.44662 | -122.30480 | 370 ft | 0 kts | 133° |
| 2026-05-04 18:44 | 47.44662 | -122.30479 | 370 ft | 0 kts | 133° |